createdAt,value
2022-12-14T00:03:51.681Z,-4.36
2022-12-14T00:08:56.475Z,-4.22
2022-12-14T00:14:00.732Z,-4.18
2022-12-14T00:19:05.681Z,-4.22
2022-12-14T00:24:10.310Z,-4.36
2022-12-14T00:29:13.182Z,-4.28
2022-12-14T00:34:17.599Z,-4.48
2022-12-14T00:39:20.928Z,-4.53
2022-12-14T00:44:23.777Z,-4.60
2022-12-14T00:49:28.030Z,-4.53
2022-12-14T00:54:30.728Z,-4.52
2022-12-14T00:59:33.462Z,-4.52
2022-12-14T01:04:37.674Z,-4.48
2022-12-14T01:09:40.353Z,-4.52
2022-12-14T01:14:43.055Z,-4.29
2022-12-14T01:19:48.993Z,-4.13
2022-12-14T01:24:52.324Z,-4.20
2022-12-14T01:29:55.026Z,-4.39
2022-12-14T01:34:59.042Z,-4.50
2022-12-14T01:40:01.795Z,-4.53
2022-12-14T01:45:05.991Z,-4.64
2022-12-14T01:50:18.963Z,-4.52
2022-12-14T01:55:23.938Z,-4.42
2022-12-14T02:00:26.785Z,-4.33
2022-12-14T02:05:31.488Z,-4.32
2022-12-14T02:10:34.602Z,-4.34
2022-12-14T02:15:39.177Z,-4.44
2022-12-14T02:20:53.953Z,-4.54
2022-12-14T02:26:28.370Z,-4.58
2022-12-14T02:31:36.077Z,-4.48
2022-12-14T02:36:43.950Z,-4.52
2022-12-14T02:41:52.354Z,-4.59
2022-12-14T02:46:59.349Z,-4.50
2022-12-14T02:52:07.588Z,-4.47
2022-12-14T02:57:14.831Z,-4.57
2022-12-14T03:02:19.597Z,-4.64
2022-12-14T03:07:34.626Z,-4.67
2022-12-14T03:12:40.736Z,-4.58
2022-12-14T03:17:49.063Z,-4.58
2022-12-14T03:22:54.502Z,-4.59
2022-12-14T03:28:01.829Z,-4.61
2022-12-14T03:33:07.677Z,-4.61
2022-12-14T03:38:15.409Z,-4.64
2022-12-14T03:43:21.899Z,-4.53
2022-12-14T03:48:31.313Z,-4.43
2022-12-14T03:53:39.396Z,-4.45
2022-12-14T03:58:55.361Z,-4.55
2022-12-14T04:04:05.277Z,-4.58
2022-12-14T04:09:18.873Z,-4.55
2022-12-14T04:14:42.419Z,-4.52
2022-12-14T04:19:49.916Z,-4.43
2022-12-14T04:25:14.449Z,-4.66
2022-12-14T04:30:17.548Z,-4.70
2022-12-14T04:35:23.951Z,-4.76
2022-12-14T04:40:30.348Z,-4.71
2022-12-14T04:45:36.961Z,-4.45
2022-12-14T04:50:45.006Z,-4.55
2022-12-14T04:55:52.297Z,-4.73
2022-12-14T05:01:09.755Z,-4.46
2022-12-14T05:06:19.704Z,-4.41
2022-12-14T05:16:50.559Z,-4.70
2022-12-14T05:21:56.022Z,-4.93
2022-12-14T05:26:58.988Z,-4.98
2022-12-14T05:32:02.013Z,-4.67
2022-12-14T05:37:06.078Z,-4.70
2022-12-14T05:42:08.783Z,-4.84
2022-12-14T05:47:11.706Z,-4.85
2022-12-14T05:52:15.896Z,-5.08
2022-12-14T05:57:18.585Z,-5.06
2022-12-14T06:02:21.411Z,-5.07
2022-12-14T06:07:27.932Z,-5.15
2022-12-14T06:12:31.552Z,-4.96
2022-12-14T06:17:34.263Z,-5.06
2022-12-14T06:22:42.758Z,-4.98
2022-12-14T06:27:48.592Z,-4.96
2022-12-14T06:32:51.313Z,-4.77
2022-12-14T06:37:55.796Z,-4.82
2022-12-14T06:42:58.572Z,-4.59
2022-12-14T06:48:02.056Z,-4.46
2022-12-14T06:53:06.251Z,-4.68
2022-12-14T06:58:12.455Z,-4.72
2022-12-14T07:03:15.271Z,-4.78
2022-12-14T07:08:20.449Z,-4.95
2022-12-14T07:13:23.642Z,-4.99
2022-12-14T07:18:27.109Z,-5.11
2022-12-14T07:23:32.841Z,-4.80
2022-12-14T07:28:36.976Z,-4.51
2022-12-14T07:33:39.711Z,-4.34
2022-12-14T07:38:45.406Z,-4.33
2022-12-14T07:43:49.738Z,-4.19
2022-12-14T07:48:54.743Z,-4.07
2022-12-14T07:53:59.593Z,-4.25
2022-12-14T07:59:04.116Z,-4.38
2022-12-14T08:04:08.737Z,-4.31
2022-12-14T08:09:13.398Z,-4.23
2022-12-14T08:14:18.158Z,-4.22
2022-12-14T08:19:21.117Z,-4.13
2022-12-14T08:24:25.510Z,-4.07
2022-12-14T08:29:28.344Z,-3.99
2022-12-14T08:34:31.270Z,-3.85
2022-12-14T08:39:35.456Z,-3.49
2022-12-14T08:44:38.243Z,-3.38
2022-12-14T08:49:41.277Z,-3.32
2022-12-14T08:54:45.692Z,-3.25
2022-12-14T09:00:03.965Z,-3.26
2022-12-14T09:05:07.154Z,-3.00
2022-12-14T09:10:11.871Z,-2.82
2022-12-14T09:15:14.702Z,-2.70
2022-12-14T09:20:19.355Z,-2.61
2022-12-14T09:25:23.571Z,-2.52
2022-12-14T09:30:27.038Z,-2.67
2022-12-14T09:35:30.063Z,-2.65
2022-12-14T09:40:34.239Z,-2.50
2022-12-14T09:45:46.216Z,-2.43
2022-12-14T09:50:50.590Z,-2.34
2022-12-14T09:55:56.734Z,-2.10
2022-12-14T10:01:05.992Z,-2.03
2022-12-14T10:06:29.050Z,-1.91
2022-12-14T10:11:38.641Z,-1.99
2022-12-14T10:16:51.471Z,-2.00
2022-12-14T10:21:58.777Z,-1.91
2022-12-14T10:27:03.193Z,-1.81
2022-12-14T10:32:19.122Z,-1.76
2022-12-14T10:37:26.556Z,-1.65
2022-12-14T10:42:33.913Z,-1.59
2022-12-14T10:47:40.245Z,-1.54
2022-12-14T10:52:44.049Z,-1.50
2022-12-14T10:57:48.311Z,-1.44
2022-12-14T11:02:55.302Z,-1.37
2022-12-14T11:07:58.180Z,-1.41
2022-12-14T11:13:06.804Z,-1.29
2022-12-14T11:18:25.124Z,-1.12
2022-12-14T11:23:30.199Z,-1.06
2022-12-14T11:28:37.778Z,-1.08
2022-12-14T11:33:45.636Z,-1.09
2022-12-14T11:38:57.331Z,-1.09
2022-12-14T11:44:22.889Z,-1.07
2022-12-14T11:49:28.239Z,-1.11
2022-12-14T11:54:31.909Z,-1.05
2022-12-14T11:59:40.897Z,-1.01
2022-12-14T12:04:46.380Z,-0.93
2022-12-14T12:09:49.127Z,-0.87
2022-12-14T12:14:57.099Z,-0.90
2022-12-14T12:20:00.180Z,-0.89
2022-12-14T12:30:33.238Z,-0.86
2022-12-14T12:35:38.932Z,-0.79
2022-12-14T12:40:53.417Z,-0.80
2022-12-14T12:46:00.241Z,-0.75
2022-12-14T12:51:05.404Z,-0.72
2022-12-14T12:56:11.856Z,-0.71
2022-12-14T13:01:25.539Z,-0.69
2022-12-14T13:06:31.333Z,-0.81
2022-12-14T13:11:38.813Z,-0.84
2022-12-14T13:16:43.453Z,-0.86
2022-12-14T13:21:49.721Z,-1.14
2022-12-14T13:27:29.467Z,-1.43
2022-12-14T13:32:47.118Z,-1.54
2022-12-14T13:38:01.911Z,-1.85
2022-12-14T13:43:16.956Z,-1.88
2022-12-14T13:48:24.516Z,-1.72
2022-12-14T13:53:29.907Z,-1.58
2022-12-14T13:58:35.082Z,-1.45
2022-12-14T14:03:56.210Z,-1.52
2022-12-14T14:09:03.077Z,-1.46
2022-12-14T14:14:15.692Z,-1.47
2022-12-14T14:19:23.728Z,-1.36
2022-12-14T14:24:27.445Z,-1.26
2022-12-14T14:29:31.029Z,-1.26
2022-12-14T14:34:39.910Z,-1.25
2022-12-14T14:40:07.244Z,-1.34
2022-12-14T14:45:07.874Z,-1.21
2022-12-14T14:50:22.373Z,-1.25
2022-12-14T14:56:01.124Z,-1.23
2022-12-14T15:01:10.744Z,-1.23
2022-12-14T15:06:20.020Z,-1.29
2022-12-14T15:11:24.234Z,-1.42
2022-12-14T15:16:32.605Z,-1.43
2022-12-14T15:21:39.217Z,-1.48
2022-12-14T15:26:42.589Z,-1.51
2022-12-14T15:31:46.994Z,-1.55
2022-12-14T15:36:51.864Z,-1.52
2022-12-14T15:42:03.392Z,-1.52
2022-12-14T15:47:07.775Z,-1.54
2022-12-14T15:52:12.279Z,-1.54
2022-12-14T15:57:18.312Z,-1.43
2022-12-14T16:02:25.513Z,-1.27
2022-12-14T16:07:34.615Z,-1.26
2022-12-14T16:12:44.384Z,-1.39
2022-12-14T16:17:48.152Z,-1.36
2022-12-14T16:23:07.772Z,-1.45
2022-12-14T16:28:21.929Z,-1.54
2022-12-14T16:33:25.725Z,-1.62
2022-12-14T16:38:30.285Z,-1.80
2022-12-14T16:43:36.040Z,-1.93
2022-12-14T16:48:41.655Z,-1.96
2022-12-14T16:53:52.443Z,-1.85
2022-12-14T16:58:57.637Z,-1.94
2022-12-14T17:04:03.547Z,-1.88
2022-12-14T17:09:08.168Z,-1.86
2022-12-14T17:14:11.083Z,-1.92
2022-12-14T17:19:21.242Z,-1.95
2022-12-14T17:24:25.419Z,-1.96
2022-12-14T17:29:29.993Z,-1.89
2022-12-14T17:34:32.763Z,-1.89
2022-12-14T17:39:38.289Z,-1.93
2022-12-14T17:44:42.009Z,-1.92
2022-12-14T17:49:44.794Z,-2.01
2022-12-14T17:54:48.962Z,-2.11
2022-12-14T18:00:13.112Z,-2.01
2022-12-14T18:05:19.376Z,-1.85
2022-12-14T18:10:24.045Z,-1.92
2022-12-14T18:15:28.645Z,-1.93
2022-12-14T18:20:31.672Z,-2.01
2022-12-14T18:25:38.013Z,-1.83
2022-12-14T18:30:47.677Z,-1.70
2022-12-14T18:35:53.493Z,-1.75
2022-12-14T18:41:00.174Z,-1.99
2022-12-14T18:46:03.041Z,-1.93
2022-12-14T18:51:06.594Z,-2.05
2022-12-14T18:56:16.200Z,-2.09
2022-12-14T19:01:20.741Z,-2.22
2022-12-14T19:11:49.280Z,-2.09
2022-12-14T19:16:51.976Z,-1.96
2022-12-14T19:21:54.886Z,-1.80
2022-12-14T19:26:59.224Z,-1.82
2022-12-14T19:32:05.619Z,-1.90
2022-12-14T19:37:08.907Z,-1.92
2022-12-14T19:42:13.941Z,-1.95
2022-12-14T19:47:16.708Z,-1.95
2022-12-14T19:52:19.666Z,-1.98
2022-12-14T19:57:23.899Z,-2.02
2022-12-14T20:02:26.805Z,-2.05
2022-12-14T20:07:29.775Z,-2.12
2022-12-14T20:12:34.675Z,-2.40
2022-12-14T20:17:37.567Z,-2.78
2022-12-14T20:22:40.614Z,-2.91
2022-12-14T20:27:44.950Z,-3.00
2022-12-14T20:32:49.116Z,-3.02
2022-12-14T20:37:53.684Z,-2.95
2022-12-14T20:42:57.826Z,-2.98
2022-12-14T20:48:00.616Z,-3.03
2022-12-14T20:53:03.456Z,-3.05
2022-12-14T20:58:07.563Z,-3.06
2022-12-14T21:03:10.466Z,-3.21
2022-12-14T21:08:15.634Z,-3.38
2022-12-14T21:13:19.953Z,-3.48
2022-12-14T21:18:24.574Z,-3.56
2022-12-14T21:23:27.782Z,-3.57
2022-12-14T21:28:32.469Z,-3.72
2022-12-14T21:33:36.371Z,-3.66
2022-12-14T21:38:39.300Z,-3.60
2022-12-14T21:43:43.421Z,-3.61
2022-12-14T21:48:46.599Z,-3.76
2022-12-14T21:54:00.979Z,-3.65
2022-12-14T21:59:05.083Z,-3.62
2022-12-14T22:04:07.875Z,-3.60
2022-12-14T22:09:10.597Z,-3.50
2022-12-14T22:14:15.242Z,-3.46
2022-12-14T22:19:21.111Z,-3.38
2022-12-14T22:24:24.803Z,-3.34
2022-12-14T22:29:28.880Z,-3.33
2022-12-14T22:34:31.631Z,-3.76
2022-12-14T22:39:34.339Z,-3.98
2022-12-14T22:44:38.865Z,-4.03
2022-12-14T22:49:41.617Z,-4.03
2022-12-14T22:54:44.663Z,-3.75
2022-12-14T22:59:57.678Z,-3.83
2022-12-14T23:05:00.456Z,-4.09
2022-12-14T23:10:20.858Z,-4.27
2022-12-14T23:15:42.351Z,-4.48
2022-12-14T23:21:02.599Z,-4.25
2022-12-14T23:26:23.429Z,-4.18
2022-12-14T23:31:44.893Z,-4.20
2022-12-14T23:37:04.927Z,-4.33
2022-12-14T23:42:25.372Z,-4.22
2022-12-14T23:47:46.795Z,-4.29
2022-12-14T23:53:09.945Z,-4.50
2022-12-14T23:58:30.056Z,-4.64
